Terminal Aerodrome Forecast
Issued by NWS Milwaukee/Sullivan, WI

Current Version | Previous Version | Text Only | Print | Product List | Glossary On
Versions: 1 2 3 4 5 6 7 8 9 10 11 12 13 14 15 16 17 18 19 20 21 22 23 24 25 26 27 28 29 30 31 32 33 34 35 36 37 38 39 40 41 42 43 44 45 46 47 48 49 50
000
FTUS43 KMKX 190207 AAA
TAFMKE
TAF AMD
KMKE 190207Z 1902/2006 03013KT P6SM SCT250
     FM190400 05011KT P6SM SCT250 WS020/12045KT
     FM190700 09011KT P6SM SCT250 WS020/12045KT
     FM191200 10011KT P6SM BKN100
     FM192000 06011KT P6SM -SHRA OVC030
     FM200000 06013KT 3SM -SHRA OVC003
     FM200200 03011KT 3SM -SHRA OVC003
     FM200500 34009KT 3SM -SHRA OVC003=

USA.gov is the U.S. government's official web portal to all federal, state and local government web resources and services.